createdAt,value
2022-12-26T00:01:07.486Z,28.30
2022-12-26T00:03:39.493Z,26.55
2022-12-26T00:06:17.905Z,28.20
2022-12-26T00:08:50.083Z,24.30
2022-12-26T00:11:25.693Z,27.45
2022-12-26T00:14:12.108Z,28.48
2022-12-26T00:16:45.712Z,27.65
2022-12-26T00:19:17.421Z,26.13
2022-12-26T00:21:49.147Z,26.73
2022-12-26T00:24:20.830Z,29.58
2022-12-26T00:26:52.508Z,26.05
2022-12-26T00:29:24.382Z,27.38
2022-12-26T00:31:57.080Z,26.05
2022-12-26T00:34:28.916Z,28.30
2022-12-26T00:37:00.586Z,28.05
2022-12-26T00:39:32.506Z,28.63
2022-12-26T00:42:04.259Z,27.08
2022-12-26T00:44:35.971Z,24.38
2022-12-26T00:47:07.741Z,26.13
2022-12-26T00:50:12.607Z,24.55
2022-12-26T00:52:31.224Z,22.30
2022-12-26T00:55:03.177Z,22.15
2022-12-26T00:57:34.860Z,21.90
2022-12-26T01:00:07.435Z,24.80
2022-12-26T01:02:40.204Z,25.77
2022-12-26T01:05:12.469Z,21.10
2022-12-26T01:08:21.145Z,19.67
2022-12-26T01:10:36.178Z,21.73
2022-12-26T01:13:08.518Z,25.52
2022-12-26T01:15:40.326Z,21.27
2022-12-26T01:18:11.999Z,21.90
2022-12-26T01:20:43.771Z,17.50
2022-12-26T01:23:16.554Z,20.23
2022-12-26T01:26:17.875Z,18.10
2022-12-26T01:28:39.977Z,21.27
2022-12-26T01:31:11.772Z,21.77
2022-12-26T01:33:43.602Z,21.13
2022-12-26T01:36:17.866Z,19.85
2022-12-26T01:38:49.547Z,18.63
2022-12-26T01:41:21.325Z,19.05
2022-12-26T01:44:00.669Z,19.83
2022-12-26T01:46:42.219Z,18.50
2022-12-26T01:49:32.110Z,19.67
2022-12-26T01:52:12.308Z,22.02
2022-12-26T01:54:49.179Z,18.90
2022-12-26T01:57:31.245Z,21.40
2022-12-26T02:00:04.487Z,14.98
2022-12-26T02:03:04.182Z,17.67
2022-12-26T02:05:36.336Z,15.23
2022-12-26T02:08:13.123Z,17.80
2022-12-26T02:11:07.994Z,15.48
2022-12-26T02:13:40.736Z,14.23
2022-12-26T02:16:15.203Z,13.98
2022-12-26T02:18:47.099Z,10.48
2022-12-26T02:21:30.940Z,10.10
2022-12-26T02:24:33.397Z,10.70
2022-12-26T02:27:27.008Z,12.35
2022-12-26T02:30:03.504Z,11.32
2022-12-26T02:33:16.489Z,10.63
2022-12-26T02:36:43.931Z,10.25
2022-12-26T02:39:43.755Z,9.68
2022-12-26T02:42:35.642Z,11.82
2022-12-26T02:45:44.077Z,12.38
2022-12-26T02:48:36.170Z,10.07
2022-12-26T02:51:29.435Z,12.68
2022-12-26T02:54:43.603Z,10.85
2022-12-26T02:57:42.019Z,10.68
2022-12-26T03:00:36.722Z,10.60
2022-12-26T03:03:39.035Z,9.63
2022-12-26T03:06:37.084Z,10.43
2022-12-26T03:09:55.117Z,10.52
2022-12-26T03:13:02.384Z,8.73
2022-12-26T03:15:58.155Z,11.68
2022-12-26T03:18:56.930Z,9.30
2022-12-26T03:21:30.597Z,7.97
2022-12-26T03:24:02.368Z,9.30
2022-12-26T03:26:41.453Z,7.47
2022-12-26T03:29:40.282Z,11.75
2022-12-26T03:32:13.183Z,8.63
2022-12-26T03:34:45.205Z,10.38
2022-12-26T03:37:25.781Z,9.98
2022-12-26T03:40:56.474Z,8.95
2022-12-26T03:44:05.968Z,8.98
2022-12-26T03:47:03.878Z,8.10
2022-12-26T03:50:03.849Z,10.20
2022-12-26T03:52:58.728Z,7.70
2022-12-26T03:56:11.886Z,8.77
2022-12-26T03:59:20.043Z,8.45
2022-12-26T04:02:11.501Z,9.23
2022-12-26T04:05:04.854Z,8.38
2022-12-26T04:08:03.738Z,11.48
2022-12-26T04:11:14.942Z,8.10
2022-12-26T04:14:29.509Z,11.20
2022-12-26T04:17:32.432Z,6.25
2022-12-26T04:20:53.477Z,7.90
2022-12-26T04:24:04.536Z,7.22
2022-12-26T04:27:02.706Z,7.97
2022-12-26T04:29:52.967Z,10.23
2022-12-26T04:32:55.487Z,7.85
2022-12-26T04:35:51.836Z,8.02
2022-12-26T04:38:47.763Z,9.73
2022-12-26T04:41:39.843Z,5.65
2022-12-26T04:44:14.740Z,8.32
2022-12-26T04:46:48.382Z,11.00
2022-12-26T04:49:38.910Z,10.48
2022-12-26T04:52:13.540Z,7.40
2022-12-26T04:54:45.708Z,7.43
2022-12-26T04:57:17.440Z,10.00
2022-12-26T04:59:49.252Z,10.65
2022-12-26T05:02:39.910Z,10.13
2022-12-26T05:05:32.115Z,9.73
2022-12-26T05:08:23.971Z,8.48
2022-12-26T05:10:55.659Z,8.57
2022-12-26T05:13:27.371Z,7.90
2022-12-26T05:16:17.520Z,7.80
2022-12-26T05:19:07.800Z,8.45
2022-12-26T05:21:58.156Z,9.35
2022-12-26T05:24:58.114Z,8.38
2022-12-26T05:27:56.275Z,8.48
2022-12-26T05:30:28.560Z,9.25
2022-12-26T05:33:18.916Z,7.43
2022-12-26T05:35:50.689Z,8.60
2022-12-26T05:38:22.398Z,9.23
2022-12-26T05:40:54.123Z,6.78
2022-12-26T05:43:25.848Z,7.70
2022-12-26T05:45:58.930Z,8.70
2022-12-26T05:48:30.736Z,10.10
2022-12-26T05:51:04.010Z,5.70
2022-12-26T05:53:35.783Z,6.13
2022-12-26T05:56:12.291Z,6.65
2022-12-26T05:58:44.905Z,7.40
2022-12-26T06:01:19.498Z,6.35
2022-12-26T06:03:56.382Z,5.93
2022-12-26T06:06:28.650Z,6.85
2022-12-26T06:09:01.728Z,7.60
2022-12-26T06:11:33.456Z,6.03
2022-12-26T06:14:05.260Z,5.70
2022-12-26T06:16:37.382Z,6.53
2022-12-26T06:19:09.164Z,6.70
2022-12-26T06:21:40.983Z,6.25
2022-12-26T06:24:14.019Z,5.30
2022-12-26T06:26:45.751Z,6.43
2022-12-26T06:29:18.290Z,7.00
2022-12-26T06:31:50.088Z,4.57
2022-12-26T06:34:21.866Z,6.40
2022-12-26T06:36:56.690Z,7.43
2022-12-26T06:39:28.442Z,6.35
2022-12-26T06:42:00.183Z,4.55
2022-12-26T06:44:32.200Z,7.82
2022-12-26T06:47:03.962Z,4.95
2022-12-26T06:49:36.256Z,4.78
2022-12-26T06:52:08.583Z,6.40
2022-12-26T06:54:40.481Z,5.80
2022-12-26T06:57:14.951Z,6.43
2022-12-26T06:59:46.607Z,5.65
2022-12-26T07:02:18.410Z,4.78
2022-12-26T07:04:50.241Z,6.88
2022-12-26T07:07:21.985Z,8.95
2022-12-26T07:09:54.211Z,5.30
2022-12-26T07:12:26.011Z,5.38
2022-12-26T07:15:01.550Z,5.43
2022-12-26T07:17:33.740Z,5.63
2022-12-26T07:20:06.383Z,5.00
2022-12-26T07:22:38.640Z,5.15
2022-12-26T07:25:10.342Z,4.85
2022-12-26T07:27:42.892Z,6.32
2022-12-26T07:30:14.597Z,7.35
2022-12-26T07:32:46.413Z,4.38
2022-12-26T07:35:20.784Z,4.80
2022-12-26T07:37:52.541Z,5.63
2022-12-26T07:40:24.303Z,5.50
2022-12-26T07:42:56.023Z,5.00
2022-12-26T07:45:27.847Z,5.57
2022-12-26T07:48:01.110Z,5.28
2022-12-26T07:50:32.859Z,5.15
2022-12-26T07:53:04.972Z,4.43
2022-12-26T07:55:36.724Z,5.20
2022-12-26T07:58:08.786Z,4.63
2022-12-26T08:00:40.563Z,6.03
2022-12-26T08:03:13.218Z,5.50
2022-12-26T08:05:46.579Z,5.68
2022-12-26T08:08:18.306Z,8.25
2022-12-26T08:10:59.089Z,5.15
2022-12-26T08:13:31.704Z,7.13
2022-12-26T08:16:08.494Z,6.22
2022-12-26T08:18:40.839Z,6.20
2022-12-26T08:21:13.594Z,6.53
2022-12-26T08:23:48.615Z,4.75
2022-12-26T08:26:23.394Z,6.38
2022-12-26T08:31:30.795Z,4.90
2022-12-26T08:34:02.560Z,5.45
2022-12-26T08:36:34.261Z,5.50
2022-12-26T08:39:06.102Z,4.30
2022-12-26T08:41:37.849Z,5.07
2022-12-26T08:44:27.483Z,5.43
2022-12-26T08:46:59.898Z,5.78
2022-12-26T08:49:33.656Z,5.77
2022-12-26T08:52:05.499Z,4.10
2022-12-26T08:54:37.228Z,5.18
2022-12-26T08:57:09.603Z,5.97
2022-12-26T08:59:41.803Z,5.65
2022-12-26T09:02:13.820Z,4.93
2022-12-26T09:04:45.727Z,6.43
2022-12-26T09:07:17.823Z,7.05
2022-12-26T09:09:49.535Z,5.60
2022-12-26T09:12:21.402Z,5.43
2022-12-26T09:14:53.417Z,5.65
2022-12-26T09:17:26.728Z,5.75
2022-12-26T09:19:58.532Z,8.27
2022-12-26T09:22:48.776Z,6.07
2022-12-26T09:25:24.184Z,8.25
2022-12-26T09:27:59.332Z,5.57
2022-12-26T09:30:31.382Z,6.53
2022-12-26T09:33:07.819Z,5.32
2022-12-26T09:35:40.979Z,6.90
2022-12-26T09:38:13.356Z,7.47
2022-12-26T09:41:05.291Z,7.05
2022-12-26T09:44:00.109Z,6.22
2022-12-26T09:47:30.923Z,5.75
2022-12-26T09:50:16.474Z,7.60
2022-12-26T09:53:04.201Z,9.68
2022-12-26T09:55:54.201Z,6.20
2022-12-26T09:58:56.866Z,5.72
2022-12-26T10:01:33.283Z,7.60
2022-12-26T10:04:09.884Z,7.43
2022-12-26T10:06:49.672Z,8.40
2022-12-26T10:09:59.211Z,5.20
2022-12-26T10:12:58.756Z,8.63
2022-12-26T10:15:50.662Z,8.43
2022-12-26T10:18:31.692Z,6.07
2022-12-26T10:21:13.580Z,7.78
2022-12-26T10:24:16.567Z,6.10
2022-12-26T10:26:59.936Z,7.72
2022-12-26T10:29:38.588Z,7.03
2022-12-26T10:32:27.838Z,6.57
2022-12-26T10:35:01.712Z,7.22
2022-12-26T10:37:39.357Z,5.82
2022-12-26T10:40:44.654Z,5.50
2022-12-26T10:43:45.771Z,6.90
2022-12-26T10:46:31.120Z,4.63
2022-12-26T10:49:06.018Z,6.15
2022-12-26T10:51:38.574Z,6.15
2022-12-26T10:54:18.008Z,5.10
2022-12-26T10:56:52.009Z,4.88
2022-12-26T10:59:35.383Z,4.70
2022-12-26T11:02:25.548Z,5.82
2022-12-26T11:05:33.328Z,6.78
2022-12-26T11:08:09.416Z,5.63
2022-12-26T11:10:48.039Z,5.78
2022-12-26T11:13:23.232Z,5.57
2022-12-26T11:15:55.064Z,5.38
2022-12-26T11:18:50.545Z,5.68
2022-12-26T11:24:08.267Z,5.60
2022-12-26T11:26:40.118Z,3.78
2022-12-26T11:29:13.141Z,6.82
2022-12-26T11:31:54.200Z,3.00
2022-12-26T11:34:37.647Z,6.60
2022-12-26T11:37:29.052Z,4.25
2022-12-26T11:40:01.671Z,5.00
2022-12-26T11:42:33.491Z,4.30
2022-12-26T11:45:11.905Z,3.63
2022-12-26T11:47:46.005Z,8.05
2022-12-26T11:50:21.526Z,4.07
2022-12-26T11:53:05.731Z,4.85
2022-12-26T11:55:39.294Z,4.70
2022-12-26T11:58:22.835Z,6.15
2022-12-26T12:01:00.292Z,6.30
2022-12-26T12:03:34.696Z,4.28
2022-12-26T12:06:21.672Z,3.58
2022-12-26T12:09:03.842Z,3.78
2022-12-26T12:11:59.254Z,3.47
2022-12-26T12:14:34.147Z,3.58
2022-12-26T12:17:31.655Z,6.18
2022-12-26T12:20:15.215Z,5.28
2022-12-26T12:22:49.854Z,3.72
2022-12-26T12:28:03.364Z,4.00
2022-12-26T12:31:00.917Z,3.78
2022-12-26T12:33:39.423Z,4.93
2022-12-26T12:36:32.723Z,3.63
2022-12-26T12:39:13.233Z,3.25
2022-12-26T12:42:06.617Z,4.65
2022-12-26T12:45:05.975Z,4.47
2022-12-26T12:47:51.750Z,6.05
2022-12-26T12:50:32.223Z,3.72
2022-12-26T12:53:43.035Z,6.95
2022-12-26T12:56:47.290Z,5.72
2022-12-26T12:59:43.721Z,4.20
2022-12-26T13:02:30.207Z,6.57
2022-12-26T13:05:39.583Z,3.53
2022-12-26T13:08:18.841Z,5.93
2022-12-26T13:11:01.500Z,4.47
2022-12-26T13:14:01.619Z,5.82
2022-12-26T13:16:43.551Z,6.10
2022-12-26T13:19:24.210Z,4.47
2022-12-26T13:22:02.598Z,7.00
2022-12-26T13:24:42.437Z,4.35
2022-12-26T13:27:22.138Z,3.72
2022-12-26T13:29:53.970Z,3.53
2022-12-26T13:32:28.360Z,4.22
2022-12-26T13:35:02.907Z,4.30
2022-12-26T13:37:37.747Z,5.47
2022-12-26T13:40:12.412Z,5.78
2022-12-26T13:48:15.259Z,5.30
2022-12-26T13:50:55.579Z,3.50
2022-12-26T13:53:34.017Z,3.38
2022-12-26T13:56:45.693Z,3.65
2022-12-26T13:59:32.831Z,3.60
2022-12-26T14:03:16.198Z,4.40
2022-12-26T14:05:40.685Z,3.58
2022-12-26T14:08:21.183Z,5.68
2022-12-26T14:11:25.510Z,4.38
2022-12-26T14:14:20.135Z,3.83
2022-12-26T14:16:59.804Z,5.57
2022-12-26T14:19:34.819Z,5.50
2022-12-26T14:22:23.158Z,3.83
2022-12-26T14:25:22.508Z,3.70
2022-12-26T14:28:10.472Z,4.40
2022-12-26T14:31:06.835Z,5.07
2022-12-26T14:33:40.596Z,4.30
2022-12-26T14:36:31.067Z,4.20
2022-12-26T14:39:44.042Z,2.83
2022-12-26T14:42:43.505Z,4.95
2022-12-26T14:45:30.307Z,3.10
2022-12-26T14:48:03.896Z,4.70
2022-12-26T14:50:43.476Z,3.22
2022-12-26T14:53:27.482Z,5.40
2022-12-26T14:56:01.280Z,3.57
2022-12-26T14:58:53.325Z,3.58
2022-12-26T15:01:25.074Z,4.72
2022-12-26T15:03:59.793Z,4.00
2022-12-26T15:09:42.700Z,3.60
2022-12-26T15:12:20.172Z,4.72
2022-12-26T15:15:10.332Z,3.22
2022-12-26T15:18:06.067Z,3.25
2022-12-26T15:20:55.758Z,4.55
2022-12-26T15:23:58.380Z,4.47
2022-12-26T15:26:51.665Z,3.72
2022-12-26T15:29:38.608Z,3.47
2022-12-26T15:32:16.552Z,3.55
2022-12-26T15:35:12.889Z,3.53
2022-12-26T15:37:53.852Z,3.33
2022-12-26T15:40:31.716Z,3.70
2022-12-26T15:43:28.221Z,3.58
2022-12-26T15:46:10.108Z,3.40
2022-12-26T15:49:01.564Z,3.90
2022-12-26T15:51:55.819Z,4.63
2022-12-26T15:54:49.425Z,3.80
2022-12-26T15:58:02.086Z,3.83
2022-12-26T16:00:47.725Z,4.40
2022-12-26T16:03:42.943Z,4.63
2022-12-26T16:06:39.107Z,3.83
2022-12-26T16:09:32.271Z,3.40
2022-12-26T16:12:21.390Z,4.10
2022-12-26T16:15:11.715Z,6.28
2022-12-26T16:17:43.867Z,3.00
2022-12-26T16:20:50.741Z,3.20
2022-12-26T16:23:25.591Z,3.75
2022-12-26T16:26:00.621Z,3.35
2022-12-26T16:28:41.751Z,3.60
2022-12-26T16:31:23.090Z,2.90
2022-12-26T16:33:58.478Z,3.55
2022-12-26T16:36:35.690Z,3.60
2022-12-26T16:39:20.876Z,3.65
2022-12-26T16:42:07.320Z,3.55
2022-12-26T16:44:41.366Z,4.38
2022-12-26T16:47:15.322Z,4.47
2022-12-26T16:49:47.536Z,4.82
2022-12-26T16:52:46.370Z,5.28
2022-12-26T16:55:30.953Z,3.15
2022-12-26T16:58:12.890Z,3.28
2022-12-26T17:01:03.007Z,3.60
2022-12-26T17:03:49.685Z,6.25
2022-12-26T17:06:32.071Z,4.43
2022-12-26T17:09:10.510Z,3.03
2022-12-26T17:11:52.068Z,3.45
2022-12-26T17:14:28.456Z,4.22
2022-12-26T17:17:25.920Z,3.33
2022-12-26T17:20:22.658Z,4.30
2022-12-26T17:22:56.227Z,5.38
2022-12-26T17:25:33.810Z,3.17
2022-12-26T17:28:08.899Z,3.70
2022-12-26T17:30:46.543Z,3.65
2022-12-26T17:33:22.361Z,4.15
2022-12-26T17:39:20.152Z,3.65
2022-12-26T17:42:00.594Z,3.95
2022-12-26T17:44:41.357Z,3.83
2022-12-26T17:47:18.250Z,4.20
2022-12-26T17:49:53.742Z,4.38
2022-12-26T17:52:28.629Z,4.20
2022-12-26T17:55:02.514Z,4.18
2022-12-26T17:57:34.275Z,4.28
2022-12-26T18:00:14.969Z,15.55
2022-12-26T18:02:46.790Z,3.22
2022-12-26T18:05:19.972Z,3.83
2022-12-26T18:07:52.529Z,3.92
2022-12-26T18:10:29.189Z,3.53
2022-12-26T18:13:01.403Z,4.28
2022-12-26T18:15:33.194Z,3.95
2022-12-26T18:18:05.276Z,3.28
2022-12-26T18:20:37.069Z,3.70
2022-12-26T18:23:11.115Z,3.72
2022-12-26T18:25:49.193Z,3.55
2022-12-26T18:28:24.662Z,4.35
2022-12-26T18:30:58.020Z,3.50
2022-12-26T18:33:30.055Z,6.70
2022-12-26T18:36:07.377Z,4.25
2022-12-26T18:38:40.313Z,5.85
2022-12-26T18:41:21.113Z,6.65
2022-12-26T18:43:52.897Z,4.00
2022-12-26T18:46:27.280Z,4.45
2022-12-26T18:48:58.992Z,4.07
2022-12-26T18:51:30.917Z,5.05
2022-12-26T18:54:02.622Z,6.22
2022-12-26T18:56:34.416Z,5.30
2022-12-26T18:59:06.151Z,4.18
2022-12-26T19:01:38.028Z,4.38
2022-12-26T19:04:13.436Z,4.55
2022-12-26T19:06:45.192Z,4.20
2022-12-26T19:09:17.320Z,6.13
2022-12-26T19:11:49.127Z,3.83
2022-12-26T19:14:22.319Z,4.70
2022-12-26T19:16:54.255Z,4.80
2022-12-26T19:19:29.641Z,5.50
2022-12-26T19:22:01.529Z,5.25
2022-12-26T19:24:34.187Z,4.68
2022-12-26T19:27:05.941Z,4.18
2022-12-26T19:29:37.713Z,3.83
2022-12-26T19:32:09.555Z,3.92
2022-12-26T19:34:41.294Z,4.47
2022-12-26T19:37:14.319Z,4.75
2022-12-26T19:39:46.069Z,3.70
2022-12-26T19:42:18.194Z,3.78
2022-12-26T19:44:49.949Z,4.97
2022-12-26T19:47:25.199Z,3.38
2022-12-26T19:50:00.386Z,3.85
2022-12-26T19:52:36.620Z,4.78
2022-12-26T19:55:12.066Z,4.25
2022-12-26T19:58:17.002Z,5.82
2022-12-26T20:00:50.877Z,4.60
2022-12-26T20:03:22.640Z,4.47
2022-12-26T20:06:04.779Z,3.60
2022-12-26T20:08:36.703Z,3.30
2022-12-26T20:11:15.312Z,3.10
2022-12-26T20:13:58.959Z,5.30
2022-12-26T20:17:03.792Z,4.32
2022-12-26T20:19:24.297Z,4.50
2022-12-26T20:21:59.203Z,3.40
2022-12-26T20:24:31.396Z,3.72
2022-12-26T20:27:06.440Z,3.15
2022-12-26T20:29:41.402Z,3.63
2022-12-26T20:32:21.948Z,3.50
2022-12-26T20:34:57.062Z,3.63
2022-12-26T20:37:32.219Z,2.80
2022-12-26T20:40:07.647Z,3.45
2022-12-26T20:42:39.412Z,2.78
2022-12-26T20:45:15.304Z,3.40
2022-12-26T20:47:47.690Z,2.67
2022-12-26T20:50:25.767Z,3.78
2022-12-26T20:53:02.437Z,2.80
2022-12-26T20:55:42.584Z,2.90
2022-12-26T20:58:14.320Z,2.38
2022-12-26T21:00:55.568Z,2.67
2022-12-26T21:03:28.004Z,2.92
2022-12-26T21:06:18.819Z,1.75
2022-12-26T21:08:52.248Z,1.77
2022-12-26T21:11:28.117Z,2.75
2022-12-26T21:14:05.383Z,2.65
2022-12-26T21:16:45.602Z,1.63
2022-12-26T21:19:18.389Z,1.75
2022-12-26T21:21:53.034Z,1.67
2022-12-26T21:24:30.295Z,1.90
2022-12-26T21:27:15.061Z,3.88
2022-12-26T21:29:47.074Z,2.22
2022-12-26T21:32:19.034Z,1.63
2022-12-26T21:34:50.853Z,2.10
2022-12-26T21:37:41.301Z,1.80
2022-12-26T21:40:13.505Z,1.95
2022-12-26T21:42:45.813Z,2.47
2022-12-26T21:45:18.549Z,1.58
2022-12-26T21:47:50.459Z,2.75
2022-12-26T21:50:22.454Z,3.17
2022-12-26T21:52:55.678Z,2.33
2022-12-26T21:55:38.104Z,2.92
2022-12-26T21:58:10.923Z,2.17
2022-12-26T22:00:43.361Z,2.38
2022-12-26T22:03:33.625Z,1.90
2022-12-26T22:06:14.509Z,3.63
2022-12-26T22:08:46.211Z,3.45
2022-12-26T22:11:54.161Z,2.13
2022-12-26T22:14:25.940Z,4.05
2022-12-26T22:16:58.848Z,2.42
2022-12-26T22:19:33.162Z,2.17
2022-12-26T22:22:05.011Z,2.60
2022-12-26T22:24:36.818Z,2.60
2022-12-26T22:27:08.565Z,4.43
2022-12-26T22:29:40.348Z,2.40
2022-12-26T22:32:12.109Z,2.00
2022-12-26T22:34:43.818Z,2.00
2022-12-26T22:37:15.558Z,2.40
2022-12-26T22:39:47.384Z,1.85
2022-12-26T22:42:19.208Z,2.72
2022-12-26T22:44:53.025Z,2.33
2022-12-26T22:47:26.990Z,1.27
2022-12-26T22:49:59.306Z,2.20
2022-12-26T22:52:31.115Z,1.52
2022-12-26T22:55:02.908Z,2.30
2022-12-26T22:57:34.693Z,2.95
2022-12-26T23:00:11.450Z,4.18
2022-12-26T23:02:43.437Z,2.97
2022-12-26T23:05:15.660Z,2.92
2022-12-26T23:07:47.654Z,3.15
2022-12-26T23:10:23.037Z,4.32
2022-12-26T23:12:55.674Z,2.03
2022-12-26T23:15:30.357Z,3.45
2022-12-26T23:21:25.860Z,4.60
2022-12-26T23:23:57.610Z,2.33
2022-12-26T23:26:29.388Z,1.83
2022-12-26T23:29:19.676Z,1.95
2022-12-26T23:31:51.756Z,2.78
2022-12-26T23:34:23.859Z,2.78
2022-12-26T23:36:55.657Z,2.05
2022-12-26T23:39:27.437Z,2.53
2022-12-26T23:41:59.172Z,1.92
2022-12-26T23:44:31.415Z,1.92
2022-12-26T23:47:03.192Z,1.98
2022-12-26T23:49:35.108Z,2.17
2022-12-26T23:52:06.843Z,2.50
2022-12-26T23:54:38.562Z,2.38
2022-12-26T23:57:10.302Z,3.17
2022-12-26T23:59:41.962Z,2.10
